KHFD/HFD METAR and TAF weather

Enter ICAO airport designator
Station Type Date Time Source
KHFD METAR 2021/05/14 22:53 UTC NOAA

KHFD 142253Z 19005KT 10SM CLR 21/02 A3011 RMK AO2 SLP197 T02110022


Station Type Date Time Source
KHFD Decoded METAR 2021/05/14 22:53 UTC NOAA

HARTFORD-BRAINARD AIRPORT, CT, United States (KHFD) 41-44N 072-39W 4M
May 14, 2021 - 06:53 PM EDT / 2021.05.14 2253 UTC
Wind: from the S (190 degrees) at 6 MPH (5 KT):0
Visibility: 10 mile(s):0
Sky conditions: clear
Temperature: 70.0 F (21.1 C)
Dew Point: 36.0 F (2.2 C)
Relative Humidity: 28%
Pressure (altimeter): 30.11 in. Hg (1019 hPa)
ob: KHFD 142253Z 19005KT 10SM CLR 21/02 A3011 RMK AO2 SLP197 T02110022
cycle: 23

Station Type Date Time Source
KHFD TAF UTC NOAA

Error!

Example: see airport list